sensor_id;sensor_type;location;lat;lon;timestamp;pressure;altitude;pressure_sealevel;temperature;humidity
64053;BME280;50299;49.524;8.536;2023-12-14T00:01:42;99454.34;;;4.70;71.80
64053;BME280;50299;49.524;8.536;2023-12-14T00:04:10;99455.09;;;4.61;70.81
64053;BME280;50299;49.524;8.536;2023-12-14T00:06:38;99463.53;;;4.51;69.97
64053;BME280;50299;49.524;8.536;2023-12-14T00:09:04;99470.41;;;4.40;70.26
64053;BME280;50299;49.524;8.536;2023-12-14T00:11:31;99470.84;;;4.33;71.24
64053;BME280;50299;49.524;8.536;2023-12-14T00:13:57;99474.00;;;4.27;71.36
64053;BME280;50299;49.524;8.536;2023-12-14T00:16:24;99476.69;;;4.18;72.06
64053;BME280;50299;49.524;8.536;2023-12-14T00:18:50;99480.88;;;4.02;72.08
64053;BME280;50299;49.524;8.536;2023-12-14T00:21:16;99479.88;;;3.98;72.11
64053;BME280;50299;49.524;8.536;2023-12-14T00:23:43;99478.41;;;3.91;73.27
64053;BME280;50299;49.524;8.536;2023-12-14T00:26:09;99483.06;;;3.91;73.47
64053;BME280;50299;49.524;8.536;2023-12-14T00:28:36;99488.22;;;3.92;73.12
64053;BME280;50299;49.524;8.536;2023-12-14T00:31:03;99492.06;;;3.91;72.36
64053;BME280;50299;49.524;8.536;2023-12-14T00:33:29;99497.53;;;3.91;72.09
64053;BME280;50299;49.524;8.536;2023-12-14T00:35:56;99490.13;;;3.92;72.19
64053;BME280;50299;49.524;8.536;2023-12-14T00:38:22;99489.13;;;3.88;72.36
64053;BME280;50299;49.524;8.536;2023-12-14T00:40:49;99490.34;;;3.82;71.15
64053;BME280;50299;49.524;8.536;2023-12-14T00:43:15;99497.38;;;3.74;71.67
64053;BME280;50299;49.524;8.536;2023-12-14T00:45:42;99499.19;;;3.65;69.42
64053;BME280;50299;49.524;8.536;2023-12-14T00:48:08;99506.00;;;3.54;68.98
64053;BME280;50299;49.524;8.536;2023-12-14T00:50:35;99510.03;;;3.42;69.13
64053;BME280;50299;49.524;8.536;2023-12-14T00:53:01;99516.22;;;3.34;71.63
64053;BME280;50299;49.524;8.536;2023-12-14T00:55:28;99522.59;;;3.30;69.74
64053;BME280;50299;49.524;8.536;2023-12-14T00:57:55;99531.47;;;3.22;69.38
64053;BME280;50299;49.524;8.536;2023-12-14T01:00:21;99535.38;;;3.15;68.79
64053;BME280;50299;49.524;8.536;2023-12-14T01:02:47;99541.97;;;3.14;72.14
64053;BME280;50299;49.524;8.536;2023-12-14T01:05:14;99543.28;;;3.17;71.98
64053;BME280;50299;49.524;8.536;2023-12-14T01:07:41;99547.53;;;3.23;72.32
64053;BME280;50299;49.524;8.536;2023-12-14T01:10:07;99559.72;;;3.31;72.44
64053;BME280;50299;49.524;8.536;2023-12-14T01:12:36;99560.34;;;3.41;73.13
64053;BME280;50299;49.524;8.536;2023-12-14T01:15:03;99570.47;;;3.55;73.75
64053;BME280;50299;49.524;8.536;2023-12-14T01:17:30;99573.78;;;3.65;73.60
64053;BME280;50299;49.524;8.536;2023-12-14T01:19:56;99580.19;;;3.75;73.64
64053;BME280;50299;49.524;8.536;2023-12-14T01:22:23;99577.75;;;3.87;74.45
64053;BME280;50299;49.524;8.536;2023-12-14T01:24:49;99586.84;;;3.96;74.28
64053;BME280;50299;49.524;8.536;2023-12-14T01:27:16;99589.66;;;4.05;73.51
64053;BME280;50299;49.524;8.536;2023-12-14T01:29:44;99590.56;;;4.14;73.74
64053;BME280;50299;49.524;8.536;2023-12-14T01:32:10;99594.81;;;4.20;73.89
64053;BME280;50299;49.524;8.536;2023-12-14T01:34:37;99599.84;;;4.27;74.03
64053;BME280;50299;49.524;8.536;2023-12-14T01:37:03;99604.91;;;4.33;74.01
64053;BME280;50299;49.524;8.536;2023-12-14T01:39:30;99605.91;;;4.37;74.18
64053;BME280;50299;49.524;8.536;2023-12-14T01:41:56;99605.31;;;4.40;73.50
64053;BME280;50299;49.524;8.536;2023-12-14T01:44:22;99612.88;;;4.43;72.65
64053;BME280;50299;49.524;8.536;2023-12-14T01:46:49;99612.88;;;4.43;73.48
64053;BME280;50299;49.524;8.536;2023-12-14T01:49:15;99622.09;;;4.48;74.03
64053;BME280;50299;49.524;8.536;2023-12-14T01:51:42;99624.22;;;4.51;72.94
64053;BME280;50299;49.524;8.536;2023-12-14T01:54:09;99625.84;;;4.52;72.41
64053;BME280;50299;49.524;8.536;2023-12-14T01:56:35;99628.91;;;4.50;72.45
64053;BME280;50299;49.524;8.536;2023-12-14T01:59:01;99640.16;;;4.49;72.17
64053;BME280;50299;49.524;8.536;2023-12-14T02:04:03;99636.72;;;4.43;72.41
64053;BME280;50299;49.524;8.536;2023-12-14T02:09:17;99650.03;;;4.36;71.12
64053;BME280;50299;49.524;8.536;2023-12-14T02:11:46;99648.69;;;4.33;72.23
64053;BME280;50299;49.524;8.536;2023-12-14T02:14:13;99654.38;;;4.37;73.01
64053;BME280;50299;49.524;8.536;2023-12-14T02:16:45;99654.56;;;4.40;72.91
64053;BME280;50299;49.524;8.536;2023-12-14T02:19:17;99659.41;;;4.43;71.41
64053;BME280;50299;49.524;8.536;2023-12-14T02:21:53;99661.06;;;4.45;71.27
64053;BME280;50299;49.524;8.536;2023-12-14T02:24:22;99666.81;;;4.43;71.68
64053;BME280;50299;49.524;8.536;2023-12-14T02:26:52;99663.16;;;4.48;71.58
64053;BME280;50299;49.524;8.536;2023-12-14T02:29:33;99670.34;;;4.43;71.44
64053;BME280;50299;49.524;8.536;2023-12-14T02:32:02;99674.94;;;4.48;71.96
64053;BME280;50299;49.524;8.536;2023-12-14T02:34:29;99682.44;;;4.56;73.47
64053;BME280;50299;49.524;8.536;2023-12-14T02:36:56;99680.38;;;4.62;72.74
64053;BME280;50299;49.524;8.536;2023-12-14T02:39:24;99687.97;;;4.65;72.31
64053;BME280;50299;49.524;8.536;2023-12-14T02:41:51;99690.59;;;4.70;71.73
64053;BME280;50299;49.524;8.536;2023-12-14T02:44:18;99689.66;;;4.75;72.99
64053;BME280;50299;49.524;8.536;2023-12-14T02:46:48;99703.25;;;4.80;73.06
64053;BME280;50299;49.524;8.536;2023-12-14T02:49:17;99703.16;;;4.85;73.06
64053;BME280;50299;49.524;8.536;2023-12-14T02:51:47;99703.06;;;4.90;72.81
64053;BME280;50299;49.524;8.536;2023-12-14T02:54:13;99699.50;;;4.89;69.77
64053;BME280;50299;49.524;8.536;2023-12-14T02:56:45;99711.69;;;4.83;70.53
64053;BME280;50299;49.524;8.536;2023-12-14T02:59:18;99715.31;;;4.79;71.70
64053;BME280;50299;49.524;8.536;2023-12-14T03:01:45;99713.19;;;4.76;70.65
64053;BME280;50299;49.524;8.536;2023-12-14T03:04:15;99720.19;;;4.82;71.65
64053;BME280;50299;49.524;8.536;2023-12-14T03:06:48;99720.09;;;4.87;71.83
64053;BME280;50299;49.524;8.536;2023-12-14T03:09:17;99729.81;;;4.93;71.48
64053;BME280;50299;49.524;8.536;2023-12-14T03:11:51;99736.91;;;4.94;70.26
64053;BME280;50299;49.524;8.536;2023-12-14T03:14:23;99747.88;;;4.94;70.55
64053;BME280;50299;49.524;8.536;2023-12-14T03:16:54;99737.94;;;4.98;69.95
64053;BME280;50299;49.524;8.536;2023-12-14T03:19:26;99739.34;;;4.96;70.33
64053;BME280;50299;49.524;8.536;2023-12-14T03:21:52;99742.06;;;4.96;70.53
64053;BME280;50299;49.524;8.536;2023-12-14T03:24:19;99747.56;;;4.96;71.50
64053;BME280;50299;49.524;8.536;2023-12-14T03:26:47;99755.03;;;5.04;72.12
64053;BME280;50299;49.524;8.536;2023-12-14T03:29:18;99746.81;;;5.04;71.80
64053;BME280;50299;49.524;8.536;2023-12-14T03:31:46;99759.09;;;5.06;72.22
64053;BME280;50299;49.524;8.536;2023-12-14T03:34:14;99768.31;;;5.10;71.64
64053;BME280;50299;49.524;8.536;2023-12-14T03:36:45;99769.94;;;5.11;71.17
64053;BME280;50299;49.524;8.536;2023-12-14T03:39:13;99775.53;;;5.06;69.93
64053;BME280;50299;49.524;8.536;2023-12-14T03:41:43;99782.44;;;5.04;70.74
64053;BME280;50299;49.524;8.536;2023-12-14T03:44:11;99786.41;;;4.98;68.96
64053;BME280;50299;49.524;8.536;2023-12-14T03:46:44;99798.09;;;4.89;70.49
64053;BME280;50299;49.524;8.536;2023-12-14T03:49:18;99799.72;;;4.90;70.37
64053;BME280;50299;49.524;8.536;2023-12-14T03:51:52;99796.97;;;4.90;71.85
64053;BME280;50299;49.524;8.536;2023-12-14T03:54:22;99792.31;;;4.91;72.07
64053;BME280;50299;49.524;8.536;2023-12-14T03:56:49;99797.47;;;4.92;71.00
64053;BME280;50299;49.524;8.536;2023-12-14T03:59:17;99798.09;;;4.89;70.93
64053;BME280;50299;49.524;8.536;2023-12-14T04:01:54;99794.53;;;4.89;70.89
64053;BME280;50299;49.524;8.536;2023-12-14T04:04:23;99801.44;;;4.86;70.40
64053;BME280;50299;49.524;8.536;2023-12-14T04:06:50;99801.31;;;4.78;69.47
64053;BME280;50299;49.524;8.536;2023-12-14T04:09:18;99810.75;;;4.72;70.04
64053;BME280;50299;49.524;8.536;2023-12-14T04:11:45;99813.91;;;4.65;70.10
64053;BME280;50299;49.524;8.536;2023-12-14T04:14:15;99821.19;;;4.56;69.67
64053;BME280;50299;49.524;8.536;2023-12-14T04:16:48;99823.53;;;4.49;70.43
64053;BME280;50299;49.524;8.536;2023-12-14T04:19:17;99828.59;;;4.41;69.32
64053;BME280;50299;49.524;8.536;2023-12-14T04:21:46;99829.78;;;4.35;69.99
64053;BME280;50299;49.524;8.536;2023-12-14T04:24:18;99830.81;;;4.26;71.72
64053;BME280;50299;49.524;8.536;2023-12-14T04:26:47;99836.97;;;4.17;70.81
64053;BME280;50299;49.524;8.536;2023-12-14T04:29:17;99841.84;;;4.21;72.04
64053;BME280;50299;49.524;8.536;2023-12-14T04:31:44;99846.63;;;4.29;72.05
64053;BME280;50299;49.524;8.536;2023-12-14T04:34:14;99845.19;;;4.31;71.94
64053;BME280;50299;49.524;8.536;2023-12-14T04:36:42;99845.72;;;4.33;72.25
64053;BME280;50299;49.524;8.536;2023-12-14T04:39:15;99844.31;;;4.36;72.02
64053;BME280;50299;49.524;8.536;2023-12-14T04:41:46;99856.56;;;4.38;72.47
64053;BME280;50299;49.524;8.536;2023-12-14T04:44:16;99853.44;;;4.45;72.85
64053;BME280;50299;49.524;8.536;2023-12-14T04:46:46;99860.75;;;4.50;72.54
64053;BME280;50299;49.524;8.536;2023-12-14T04:49:16;99859.84;;;4.54;72.26
64053;BME280;50299;49.524;8.536;2023-12-14T04:51:46;99866.63;;;4.57;72.32
64053;BME280;50299;49.524;8.536;2023-12-14T04:54:13;99877.28;;;4.58;71.98
64053;BME280;50299;49.524;8.536;2023-12-14T04:56:48;99881.63;;;4.59;70.69
64053;BME280;50299;49.524;8.536;2023-12-14T04:59:17;99885.06;;;4.51;71.86
64053;BME280;50299;49.524;8.536;2023-12-14T05:01:44;99886.09;;;4.55;72.22
64053;BME280;50299;49.524;8.536;2023-12-14T05:04:11;99902.22;;;4.57;70.58
64053;BME280;50299;49.524;8.536;2023-12-14T05:06:38;99906.69;;;4.53;71.21
64053;BME280;50299;49.524;8.536;2023-12-14T05:09:08;99912.44;;;4.51;71.71
64053;BME280;50299;49.524;8.536;2023-12-14T05:11:41;99910.72;;;4.55;71.86
64053;BME280;50299;49.524;8.536;2023-12-14T05:14:08;99912.06;;;4.58;71.50
64053;BME280;50299;49.524;8.536;2023-12-14T05:16:38;99915.91;;;4.57;71.59
64053;BME280;50299;49.524;8.536;2023-12-14T05:19:08;99924.94;;;4.57;71.00
64053;BME280;50299;49.524;8.536;2023-12-14T05:21:35;99929.88;;;4.55;71.14
64053;BME280;50299;49.524;8.536;2023-12-14T05:24:02;99935.06;;;4.57;70.49
64053;BME280;50299;49.524;8.536;2023-12-14T05:26:29;99929.97;;;4.50;71.57
64053;BME280;50299;49.524;8.536;2023-12-14T05:28:56;99948.53;;;4.53;70.85
64053;BME280;50299;49.524;8.536;2023-12-14T05:31:29;99949.84;;;4.56;70.71
64053;BME280;50299;49.524;8.536;2023-12-14T05:33:58;99956.63;;;4.45;70.70
64053;BME280;50299;49.524;8.536;2023-12-14T05:36:27;99952.88;;;4.40;71.81
64053;BME280;50299;49.524;8.536;2023-12-14T05:38:54;99963.94;;;4.49;71.97
64053;BME280;50299;49.524;8.536;2023-12-14T05:41:20;99967.41;;;4.55;72.20
64053;BME280;50299;49.524;8.536;2023-12-14T05:43:47;99966.81;;;4.58;72.13
64053;BME280;50299;49.524;8.536;2023-12-14T05:46:23;99979.28;;;4.64;72.12
64053;BME280;50299;49.524;8.536;2023-12-14T05:48:50;99977.88;;;4.66;71.80
64053;BME280;50299;49.524;8.536;2023-12-14T05:51:30;99985.50;;;4.70;71.74
64053;BME280;50299;49.524;8.536;2023-12-14T05:53:57;99984.06;;;4.72;72.08
64053;BME280;50299;49.524;8.536;2023-12-14T05:56:26;99992.50;;;4.76;72.28
64053;BME280;50299;49.524;8.536;2023-12-14T05:59:00;100002.84;;;4.79;72.01
64053;BME280;50299;49.524;8.536;2023-12-14T06:01:27;99996.84;;;4.77;70.40
64053;BME280;50299;49.524;8.536;2023-12-14T06:03:54;100004.25;;;4.76;71.15
64053;BME280;50299;49.524;8.536;2023-12-14T06:06:21;100010.53;;;4.77;71.01
64053;BME280;50299;49.524;8.536;2023-12-14T06:08:48;100013.38;;;4.72;70.67
64053;BME280;50299;49.524;8.536;2023-12-14T06:11:20;100017.53;;;4.69;71.19
64053;BME280;50299;49.524;8.536;2023-12-14T06:13:47;100026.66;;;4.64;71.00
64053;BME280;50299;49.524;8.536;2023-12-14T06:16:13;100016.00;;;4.63;71.10
64053;BME280;50299;49.524;8.536;2023-12-14T06:18:40;100021.19;;;4.64;71.43
64053;BME280;50299;49.524;8.536;2023-12-14T06:21:13;100032.41;;;4.63;71.17
64053;BME280;50299;49.524;8.536;2023-12-14T06:23:40;100038.69;;;4.63;70.83
64053;BME280;50299;49.524;8.536;2023-12-14T06:26:09;100037.88;;;4.63;71.14
64053;BME280;50299;49.524;8.536;2023-12-14T06:28:36;100048.94;;;4.58;71.18
64053;BME280;50299;49.524;8.536;2023-12-14T06:31:03;100048.94;;;4.58;70.96
64053;BME280;50299;49.524;8.536;2023-12-14T06:33:31;100052.25;;;4.55;71.26
64053;BME280;50299;49.524;8.536;2023-12-14T06:35:57;100061.28;;;4.55;71.42
64053;BME280;50299;49.524;8.536;2023-12-14T06:38:27;100065.94;;;4.55;71.14
64053;BME280;50299;49.524;8.536;2023-12-14T06:40:54;100071.72;;;4.53;71.09
64053;BME280;50299;49.524;8.536;2023-12-14T06:43:22;100068.69;;;4.55;71.43
64053;BME280;50299;49.524;8.536;2023-12-14T06:45:49;100076.91;;;4.55;71.63
64053;BME280;50299;49.524;8.536;2023-12-14T06:48:16;100082.91;;;4.57;71.53
64053;BME280;50299;49.524;8.536;2023-12-14T06:50:43;100089.19;;;4.57;70.86
64053;BME280;50299;49.524;8.536;2023-12-14T06:53:19;100088.88;;;4.59;71.31
64053;BME280;50299;49.524;8.536;2023-12-14T06:55:48;100095.47;;;4.58;71.61
64053;BME280;50299;49.524;8.536;2023-12-14T06:58:17;100104.50;;;4.58;71.45
64053;BME280;50299;49.524;8.536;2023-12-14T07:00:46;100105.03;;;4.60;71.33
64053;BME280;50299;49.524;8.536;2023-12-14T07:03:14;100109.38;;;4.61;71.35
64053;BME280;50299;49.524;8.536;2023-12-14T07:05:42;100115.09;;;4.65;71.73
64053;BME280;50299;49.524;8.536;2023-12-14T07:08:12;100119.13;;;4.67;71.42
64053;BME280;50299;49.524;8.536;2023-12-14T07:10:41;100118.31;;;4.67;71.77
64053;BME280;50299;49.524;8.536;2023-12-14T07:13:10;100125.72;;;4.66;71.09
64053;BME280;50299;49.524;8.536;2023-12-14T07:15:37;100126.53;;;4.67;70.64
64053;BME280;50299;49.524;8.536;2023-12-14T07:18:04;100124.31;;;4.69;70.70
64053;BME280;50299;49.524;8.536;2023-12-14T07:20:33;100135.56;;;4.67;71.01
64053;BME280;50299;49.524;8.536;2023-12-14T07:23:00;100144.44;;;4.59;70.30
64053;BME280;50299;49.524;8.536;2023-12-14T07:25:29;100155.13;;;4.61;70.98
64053;BME280;50299;49.524;8.536;2023-12-14T07:27:56;100154.31;;;4.60;70.14
64053;BME280;50299;49.524;8.536;2023-12-14T07:30:25;100154.81;;;4.62;71.65
64053;BME280;50299;49.524;8.536;2023-12-14T07:32:54;100159.63;;;4.71;70.83
64053;BME280;50299;49.524;8.536;2023-12-14T07:35:27;100161.91;;;4.63;70.96
64053;BME280;50299;49.524;8.536;2023-12-14T07:38:00;100157.47;;;4.67;71.62
64053;BME280;50299;49.524;8.536;2023-12-14T07:40:30;100168.56;;;4.76;72.45
64053;BME280;50299;49.524;8.536;2023-12-14T07:42:57;100174.50;;;4.83;72.00
64053;BME280;50299;49.524;8.536;2023-12-14T07:45:27;100172.31;;;4.85;71.28
64053;BME280;50299;49.524;8.536;2023-12-14T07:47:54;100184.31;;;4.89;71.89
64053;BME280;50299;49.524;8.536;2023-12-14T07:50:21;100195.25;;;4.89;72.42
64053;BME280;50299;49.524;8.536;2023-12-14T07:52:54;100203.16;;;4.91;71.91
64053;BME280;50299;49.524;8.536;2023-12-14T07:55:21;100212.50;;;4.90;70.05
64053;BME280;50299;49.524;8.536;2023-12-14T07:57:50;100211.97;;;4.88;71.75
64053;BME280;50299;49.524;8.536;2023-12-14T08:00:20;100219.25;;;4.98;72.00
64053;BME280;50299;49.524;8.536;2023-12-14T08:02:50;100220.78;;;5.04;72.39
64053;BME280;50299;49.524;8.536;2023-12-14T08:05:17;100227.72;;;5.15;72.55
64053;BME280;50299;49.524;8.536;2023-12-14T08:07:46;100224.59;;;5.22;72.05
64053;BME280;50299;49.524;8.536;2023-12-14T08:10:14;100226.97;;;5.28;72.20
64053;BME280;50299;49.524;8.536;2023-12-14T08:12:41;100232.88;;;5.35;72.03
64053;BME280;50299;49.524;8.536;2023-12-14T08:15:09;100243.47;;;5.42;71.69
64053;BME280;50299;49.524;8.536;2023-12-14T08:17:36;100241.97;;;5.50;72.22
64053;BME280;50299;49.524;8.536;2023-12-14T08:20:03;100255.00;;;5.58;72.38
64053;BME280;50299;49.524;8.536;2023-12-14T08:22:34;100261.22;;;5.63;71.92
64053;BME280;50299;49.524;8.536;2023-12-14T08:25:01;100270.16;;;5.69;71.89
64053;BME280;50299;49.524;8.536;2023-12-14T08:27:30;100283.78;;;5.74;70.59
64053;BME280;50299;49.524;8.536;2023-12-14T08:29:59;100284.53;;;5.80;71.41
64053;BME280;50299;49.524;8.536;2023-12-14T08:32:28;100289.38;;;5.83;71.94
64053;BME280;50299;49.524;8.536;2023-12-14T08:34:58;100287.16;;;5.85;71.77
64053;BME280;50299;49.524;8.536;2023-12-14T08:37:24;100294.50;;;5.89;71.57
64053;BME280;50299;49.524;8.536;2023-12-14T08:39:51;100305.09;;;5.96;71.47
64053;BME280;50299;49.524;8.536;2023-12-14T08:42:22;100319.53;;;6.02;70.98
64053;BME280;50299;49.524;8.536;2023-12-14T08:44:51;100314.53;;;6.04;71.59
64053;BME280;50299;49.524;8.536;2023-12-14T08:47:25;100320.53;;;6.06;71.55
64053;BME280;50299;49.524;8.536;2023-12-14T08:49:54;100326.53;;;6.08;71.02
64053;BME280;50299;49.524;8.536;2023-12-14T08:52:21;100331.97;;;6.13;71.18
64053;BME280;50299;49.524;8.536;2023-12-14T08:54:51;100330.22;;;6.17;71.49
64053;BME280;50299;49.524;8.536;2023-12-14T08:57:17;100337.56;;;6.22;71.71
64053;BME280;50299;49.524;8.536;2023-12-14T08:59:46;100339.22;;;6.23;71.37
64053;BME280;50299;49.524;8.536;2023-12-14T09:02:18;100347.66;;;6.26;71.30
64053;BME280;50299;49.524;8.536;2023-12-14T09:04:47;100346.03;;;6.25;70.87
64053;BME280;50299;49.524;8.536;2023-12-14T09:07:17;100361.06;;;6.28;71.03
64053;BME280;50299;49.524;8.536;2023-12-14T09:09:45;100354.56;;;6.24;69.75
64053;BME280;50299;49.524;8.536;2023-12-14T09:12:12;100369.09;;;6.24;71.53
64053;BME280;50299;49.524;8.536;2023-12-14T09:14:39;100369.53;;;6.31;70.48
64053;BME280;50299;49.524;8.536;2023-12-14T09:17:06;100367.81;;;6.35;70.81
64053;BME280;50299;49.524;8.536;2023-12-14T09:19:33;100364.47;;;6.38;71.42
64053;BME280;50299;49.524;8.536;2023-12-14T09:22:01;100380.03;;;6.43;71.51
64053;BME280;50299;49.524;8.536;2023-12-14T09:24:30;100388.97;;;6.49;71.80
64053;BME280;50299;49.524;8.536;2023-12-14T09:26:59;100392.94;;;6.56;72.26
64053;BME280;50299;49.524;8.536;2023-12-14T09:29:26;100401.41;;;6.60;71.24
64053;BME280;50299;49.524;8.536;2023-12-14T09:31:58;100395.59;;;6.61;70.91
64053;BME280;50299;49.524;8.536;2023-12-14T09:34:25;100407.91;;;6.64;71.20
64053;BME280;50299;49.524;8.536;2023-12-14T09:36:52;100416.16;;;6.64;69.58
64053;BME280;50299;49.524;8.536;2023-12-14T09:39:22;100413.41;;;6.64;71.02
64053;BME280;50299;49.524;8.536;2023-12-14T09:41:51;100427.97;;;6.64;70.28
64053;BME280;50299;49.524;8.536;2023-12-14T09:44:21;100420.84;;;6.63;70.57
64053;BME280;50299;49.524;8.536;2023-12-14T09:46:50;100436.72;;;6.67;69.91
64053;BME280;50299;49.524;8.536;2023-12-14T09:49:17;100440.28;;;6.67;70.56
64053;BME280;50299;49.524;8.536;2023-12-14T09:51:50;100439.97;;;6.69;71.23
64053;BME280;50299;49.524;8.536;2023-12-14T09:54:17;100446.16;;;6.74;71.55
64053;BME280;50299;49.524;8.536;2023-12-14T09:56:47;100449.44;;;6.76;71.18
64053;BME280;50299;49.524;8.536;2023-12-14T09:59:21;100451.06;;;6.77;70.71
64053;BME280;50299;49.524;8.536;2023-12-14T10:01:51;100451.06;;;6.77;70.60
64053;BME280;50299;49.524;8.536;2023-12-14T10:04:21;100456.28;;;6.79;70.51
64053;BME280;50299;49.524;8.536;2023-12-14T10:06:51;100457.09;;;6.79;70.87
64053;BME280;50299;49.524;8.536;2023-12-14T10:09:23;100464.69;;;6.82;70.40
64053;BME280;50299;49.524;8.536;2023-12-14T10:12:02;100462.47;;;6.84;68.39
64053;BME280;50299;49.524;8.536;2023-12-14T10:14:34;100469.22;;;6.92;70.91
64053;BME280;50299;49.524;8.536;2023-12-14T10:17:17;100472.66;;;6.98;70.04
64053;BME280;50299;49.524;8.536;2023-12-14T10:19:49;100474.91;;;7.09;71.11
64053;BME280;50299;49.524;8.536;2023-12-14T10:22:22;100466.16;;;7.21;70.25
64053;BME280;50299;49.524;8.536;2023-12-14T10:24:51;100473.69;;;7.29;70.65
64053;BME280;50299;49.524;8.536;2023-12-14T10:27:21;100474.19;;;7.31;68.92
64053;BME280;50299;49.524;8.536;2023-12-14T10:29:48;100478.69;;;7.41;70.24
64053;BME280;50299;49.524;8.536;2023-12-14T10:32:18;100477.25;;;7.44;70.27
64053;BME280;50299;49.524;8.536;2023-12-14T10:34:47;100482.03;;;7.52;67.56
64053;BME280;50299;49.524;8.536;2023-12-14T10:37:16;100479.00;;;7.53;70.08
64053;BME280;50299;49.524;8.536;2023-12-14T10:39:46;100489.09;;;7.58;70.14
64053;BME280;50299;49.524;8.536;2023-12-14T10:42:13;100496.72;;;7.61;70.45
64053;BME280;50299;49.524;8.536;2023-12-14T10:44:48;100491.09;;;7.66;70.85
64053;BME280;50299;49.524;8.536;2023-12-14T10:47:22;100499.38;;;7.66;69.89
64053;BME280;50299;49.524;8.536;2023-12-14T10:49:56;100505.34;;;7.68;70.03
64053;BME280;50299;49.524;8.536;2023-12-14T10:52:25;100508.63;;;7.70;69.68
64053;BME280;50299;49.524;8.536;2023-12-14T10:54:56;100503.63;;;7.72;69.40
64053;BME280;50299;49.524;8.536;2023-12-14T10:57:28;100502.13;;;7.66;68.69
64053;BME280;50299;49.524;8.536;2023-12-14T11:00:03;100517.50;;;7.67;69.02
64053;BME280;50299;49.524;8.536;2023-12-14T11:02:40;100516.88;;;7.70;66.72
64053;BME280;50299;49.524;8.536;2023-12-14T11:05:13;100519.94;;;7.69;68.16
64053;BME280;50299;49.524;8.536;2023-12-14T11:07:45;100519.94;;;7.69;67.09
64053;BME280;50299;49.524;8.536;2023-12-14T11:10:13;100519.44;;;7.67;69.22
64053;BME280;50299;49.524;8.536;2023-12-14T11:13:03;100521.25;;;7.71;68.06
64053;BME280;50299;49.524;8.536;2023-12-14T11:15:37;100524.69;;;7.77;68.70
64053;BME280;50299;49.524;8.536;2023-12-14T11:23:26;100533.38;;;7.84;68.04
64053;BME280;50299;49.524;8.536;2023-12-14T11:26:08;100541.34;;;7.72;66.65
64053;BME280;50299;49.524;8.536;2023-12-14T11:28:37;100538.09;;;7.70;67.65
64053;BME280;50299;49.524;8.536;2023-12-14T11:31:05;100551.22;;;7.73;68.58
64053;BME280;50299;49.524;8.536;2023-12-14T11:33:34;100561.84;;;7.66;67.94
64053;BME280;50299;49.524;8.536;2023-12-14T11:36:05;100563.03;;;7.59;68.81
64053;BME280;50299;49.524;8.536;2023-12-14T11:38:35;100568.44;;;7.64;67.86
64053;BME280;50299;49.524;8.536;2023-12-14T11:41:03;100572.53;;;7.53;67.69
64053;BME280;50299;49.524;8.536;2023-12-14T11:43:33;100581.75;;;7.44;65.69
64053;BME280;50299;49.524;8.536;2023-12-14T11:46:05;100577.97;;;7.39;67.30
64053;BME280;50299;49.524;8.536;2023-12-14T11:48:31;100572.47;;;7.39;68.15
64053;BME280;50299;49.524;8.536;2023-12-14T11:50:58;100579.00;;;7.44;68.25
64053;BME280;50299;49.524;8.536;2023-12-14T11:53:27;100576.47;;;7.47;68.37
64053;BME280;50299;49.524;8.536;2023-12-14T11:55:54;100585.31;;;7.44;67.39
64053;BME280;50299;49.524;8.536;2023-12-14T11:58:24;100581.25;;;7.42;67.41
64053;BME280;50299;49.524;8.536;2023-12-14T12:00:54;100586.13;;;7.31;65.68
64053;BME280;50299;49.524;8.536;2023-12-14T12:03:22;100590.22;;;7.20;64.08
64053;BME280;50299;49.524;8.536;2023-12-14T12:05:51;100591.94;;;7.15;64.38
64053;BME280;50299;49.524;8.536;2023-12-14T12:08:20;100588.16;;;7.11;66.88
64053;BME280;50299;49.524;8.536;2023-12-14T12:10:51;100601.59;;;7.13;67.70
64053;BME280;50299;49.524;8.536;2023-12-14T12:13:19;100599.34;;;7.15;67.37
64053;BME280;50299;49.524;8.536;2023-12-14T12:15:50;100594.38;;;7.17;68.07
64053;BME280;50299;49.524;8.536;2023-12-14T12:18:19;100589.13;;;7.02;63.06
64053;BME280;50299;49.524;8.536;2023-12-14T12:20:46;100595.03;;;6.95;66.72
64053;BME280;50299;49.524;8.536;2023-12-14T12:23:15;100612.13;;;6.92;64.95
64053;BME280;50299;49.524;8.536;2023-12-14T12:25:43;100608.75;;;6.62;64.85
64053;BME280;50299;49.524;8.536;2023-12-14T12:28:15;100612.81;;;6.65;66.29
64053;BME280;50299;49.524;8.536;2023-12-14T12:30:42;100613.22;;;6.58;64.57
64053;BME280;50299;49.524;8.536;2023-12-14T12:33:09;100609.94;;;6.56;65.93
64053;BME280;50299;49.524;8.536;2023-12-14T12:35:40;100603.72;;;6.51;66.06
64053;BME280;50299;49.524;8.536;2023-12-14T12:38:10;100608.53;;;6.59;66.37
64053;BME280;50299;49.524;8.536;2023-12-14T12:40:39;100618.03;;;6.48;63.93
64053;BME280;50299;49.524;8.536;2023-12-14T12:43:09;100610.69;;;6.43;65.77
64053;BME280;50299;49.524;8.536;2023-12-14T12:45:36;100617.13;;;6.52;66.91
64053;BME280;50299;49.524;8.536;2023-12-14T12:48:06;100623.38;;;6.58;65.56
64053;BME280;50299;49.524;8.536;2023-12-14T12:50:34;100615.19;;;6.53;64.57
64053;BME280;50299;49.524;8.536;2023-12-14T12:53:09;100618.13;;;6.43;63.75
64053;BME280;50299;49.524;8.536;2023-12-14T12:55:38;100616.69;;;6.64;67.79
64053;BME280;50299;49.524;8.536;2023-12-14T12:58:13;100611.09;;;6.88;66.82
64053;BME280;50299;49.524;8.536;2023-12-14T13:00:42;100613.75;;;6.74;68.00
64053;BME280;50299;49.524;8.536;2023-12-14T13:03:09;100626.09;;;6.96;64.56
64053;BME280;50299;49.524;8.536;2023-12-14T13:05:37;100619.81;;;7.09;67.02
64053;BME280;50299;49.524;8.536;2023-12-14T13:08:10;100627.22;;;7.08;66.19
64053;BME280;50299;49.524;8.536;2023-12-14T13:10:40;100627.84;;;7.19;65.89
64053;BME280;50299;49.524;8.536;2023-12-14T13:13:07;100636.94;;;7.20;65.35
64053;BME280;50299;49.524;8.536;2023-12-14T13:15:39;100646.13;;;7.29;66.27
64053;BME280;50299;49.524;8.536;2023-12-14T13:18:11;100640.50;;;7.20;64.77
64053;BME280;50299;49.524;8.536;2023-12-14T13:20:42;100646.38;;;7.13;66.29
64053;BME280;50299;49.524;8.536;2023-12-14T13:23:09;100651.38;;;7.11;64.96
64053;BME280;50299;49.524;8.536;2023-12-14T13:25:46;100663.44;;;7.29;62.02